sensor_id;sensor_type;location;lat;lon;timestamp;pressure;altitude;pressure_sealevel;temperature;humidity
78121;BME280;67585;44.802;10.332;2023-07-24T00:02:04;100719.41;;;25.76;46.61
78121;BME280;67585;44.802;10.332;2023-07-24T00:04:32;100723.75;;;25.42;47.20
78121;BME280;67585;44.802;10.332;2023-07-24T00:07:00;100700.97;;;25.13;47.64
78121;BME280;67585;44.802;10.332;2023-07-24T00:09:25;100704.34;;;25.38;46.99
78121;BME280;67585;44.802;10.332;2023-07-24T00:11:51;100657.91;;;25.08;47.06
78121;BME280;67585;44.802;10.332;2023-07-24T00:14:16;100687.56;;;25.27;46.67
78121;BME280;67585;44.802;10.332;2023-07-24T00:16:42;100670.00;;;25.04;46.84
78121;BME280;67585;44.802;10.332;2023-07-24T00:19:07;100713.84;;;24.93;47.27
78121;BME280;67585;44.802;10.332;2023-07-24T00:21:33;100702.44;;;24.79;47.23
78121;BME280;67585;44.802;10.332;2023-07-24T00:23:58;100705.03;;;24.87;46.97
78121;BME280;67585;44.802;10.332;2023-07-24T00:26:24;100686.00;;;24.82;47.03
78121;BME280;67585;44.802;10.332;2023-07-24T00:28:49;100700.91;;;24.65;48.35
78121;BME280;67585;44.802;10.332;2023-07-24T00:31:14;100691.41;;;24.35;48.79
78121;BME280;67585;44.802;10.332;2023-07-24T00:33:40;100686.59;;;24.60;47.90
78121;BME280;67585;44.802;10.332;2023-07-24T00:36:05;100659.78;;;24.16;48.91
78121;BME280;67585;44.802;10.332;2023-07-24T00:38:30;100682.78;;;24.64;47.75
78121;BME280;67585;44.802;10.332;2023-07-24T00:40:56;100673.38;;;24.37;47.96
78121;BME280;67585;44.802;10.332;2023-07-24T00:43:21;100670.41;;;24.58;47.36
78121;BME280;67585;44.802;10.332;2023-07-24T00:45:47;100680.09;;;24.52;47.58
78121;BME280;67585;44.802;10.332;2023-07-24T00:48:13;100673.88;;;24.55;47.11
78121;BME280;67585;44.802;10.332;2023-07-24T00:50:42;100683.13;;;24.35;47.86
78121;BME280;67585;44.802;10.332;2023-07-24T00:53:08;100650.31;;;24.29;47.81
78121;BME280;67585;44.802;10.332;2023-07-24T00:55:33;100679.91;;;24.61;47.42
78121;BME280;67585;44.802;10.332;2023-07-24T00:57:59;100698.25;;;24.69;47.46
78121;BME280;67585;44.802;10.332;2023-07-24T01:00:25;100706.94;;;24.55;47.67
78121;BME280;67585;44.802;10.332;2023-07-24T01:02:51;100685.59;;;24.52;46.83
78121;BME280;67585;44.802;10.332;2023-07-24T01:05:17;100709.28;;;24.69;46.61
78121;BME280;67585;44.802;10.332;2023-07-24T01:07:43;100705.81;;;24.88;46.22
78121;BME280;67585;44.802;10.332;2023-07-24T01:10:09;100684.66;;;24.76;46.06
78121;BME280;67585;44.802;10.332;2023-07-24T01:12:58;100725.59;;;25.22;45.18
78121;BME280;67585;44.802;10.332;2023-07-24T01:15:44;100716.59;;;25.09;45.41
78121;BME280;67585;44.802;10.332;2023-07-24T01:18:11;100705.69;;;25.28;44.48
78121;BME280;67585;44.802;10.332;2023-07-24T01:20:51;100705.47;;;25.53;44.24
78121;BME280;67585;44.802;10.332;2023-07-24T01:26:21;100682.66;;;25.21;43.31
78121;BME280;67585;44.802;10.332;2023-07-24T01:28:49;100689.03;;;25.09;43.63
78121;BME280;67585;44.802;10.332;2023-07-24T01:31:14;100689.06;;;25.25;43.31
78121;BME280;67585;44.802;10.332;2023-07-24T01:33:42;100683.28;;;25.30;43.10
78121;BME280;67585;44.802;10.332;2023-07-24T01:36:07;100671.88;;;25.31;43.09
78121;BME280;67585;44.802;10.332;2023-07-24T01:38:34;100681.75;;;25.32;42.60
78121;BME280;67585;44.802;10.332;2023-07-24T01:41:00;100670.44;;;25.06;42.50
78121;BME280;67585;44.802;10.332;2023-07-24T01:43:26;100660.78;;;25.28;42.77
78121;BME280;67585;44.802;10.332;2023-07-24T01:45:52;100636.50;;;25.18;42.81
78121;BME280;67585;44.802;10.332;2023-07-24T01:48:18;100637.53;;;25.45;42.21
78121;BME280;67585;44.802;10.332;2023-07-24T01:50:43;100632.31;;;25.59;42.31
78121;BME280;67585;44.802;10.332;2023-07-24T01:53:09;100646.41;;;25.54;42.04
78121;BME280;67585;44.802;10.332;2023-07-24T01:55:35;100631.22;;;25.44;42.03
78121;BME280;67585;44.802;10.332;2023-07-24T01:58:00;100644.91;;;25.41;42.37
78121;BME280;67585;44.802;10.332;2023-07-24T02:00:25;100627.47;;;25.36;42.54
78121;BME280;67585;44.802;10.332;2023-07-24T02:02:51;100595.66;;;25.23;41.69
78121;BME280;67585;44.802;10.332;2023-07-24T02:05:16;100609.38;;;25.20;43.07
78121;BME280;67585;44.802;10.332;2023-07-24T02:07:42;100579.78;;;25.36;42.78
78121;BME280;67585;44.802;10.332;2023-07-24T02:10:07;100567.03;;;25.47;42.93
78121;BME280;67585;44.802;10.332;2023-07-24T02:12:33;100563.78;;;25.61;42.77
78121;BME280;67585;44.802;10.332;2023-07-24T02:14:58;100569.59;;;25.56;43.17
78121;BME280;67585;44.802;10.332;2023-07-24T02:17:25;100571.25;;;25.61;43.08
78121;BME280;67585;44.802;10.332;2023-07-24T02:19:50;100551.59;;;25.62;44.47
78121;BME280;67585;44.802;10.332;2023-07-24T02:22:15;100557.91;;;25.63;44.23
78121;BME280;67585;44.802;10.332;2023-07-24T02:24:41;100566.97;;;25.63;44.12
78121;BME280;67585;44.802;10.332;2023-07-24T02:27:07;100538.72;;;25.31;45.10
78121;BME280;67585;44.802;10.332;2023-07-24T02:29:32;100565.31;;;25.39;45.36
78121;BME280;67585;44.802;10.332;2023-07-24T02:31:59;100549.41;;;25.32;44.95
78121;BME280;67585;44.802;10.332;2023-07-24T02:34:24;100569.50;;;25.33;45.08
78121;BME280;67585;44.802;10.332;2023-07-24T02:36:52;100558.16;;;25.03;45.69
78121;BME280;67585;44.802;10.332;2023-07-24T02:39:18;100565.50;;;25.14;45.07
78121;BME280;67585;44.802;10.332;2023-07-24T02:41:44;100589.50;;;25.14;45.41
78121;BME280;67585;44.802;10.332;2023-07-24T02:44:10;100604.84;;;24.95;45.93
78121;BME280;67585;44.802;10.332;2023-07-24T02:46:35;100606.44;;;25.12;45.60
78121;BME280;67585;44.802;10.332;2023-07-24T02:49:01;100620.94;;;24.78;45.73
78121;BME280;67585;44.802;10.332;2023-07-24T02:51:26;100622.34;;;25.03;44.62
78121;BME280;67585;44.802;10.332;2023-07-24T02:53:54;100609.63;;;24.99;44.76
78121;BME280;67585;44.802;10.332;2023-07-24T02:56:19;100616.28;;;24.98;44.43
78121;BME280;67585;44.802;10.332;2023-07-24T02:58:46;100642.53;;;24.91;44.30
78121;BME280;67585;44.802;10.332;2023-07-24T03:01:11;100637.09;;;24.95;44.27
78121;BME280;67585;44.802;10.332;2023-07-24T03:03:40;100656.22;;;24.88;44.84
78121;BME280;67585;44.802;10.332;2023-07-24T03:06:06;100626.44;;;24.93;43.80
78121;BME280;67585;44.802;10.332;2023-07-24T03:08:31;100668.16;;;25.08;44.46
78121;BME280;67585;44.802;10.332;2023-07-24T03:10:57;100628.94;;;24.67;44.54
78121;BME280;67585;44.802;10.332;2023-07-24T03:13:22;100676.50;;;24.95;44.50
78121;BME280;67585;44.802;10.332;2023-07-24T03:15:52;100654.97;;;24.69;45.22
78121;BME280;67585;44.802;10.332;2023-07-24T03:18:18;100654.88;;;24.82;44.84
78121;BME280;67585;44.802;10.332;2023-07-24T03:20:43;100666.97;;;25.09;44.79
78121;BME280;67585;44.802;10.332;2023-07-24T03:23:08;100636.22;;;24.91;44.26
78121;BME280;67585;44.802;10.332;2023-07-24T03:25:34;100611.50;;;24.94;43.76
78121;BME280;67585;44.802;10.332;2023-07-24T03:28:00;100602.94;;;25.15;43.71
78121;BME280;67585;44.802;10.332;2023-07-24T03:30:26;100591.75;;;25.08;42.93
78121;BME280;67585;44.802;10.332;2023-07-24T03:32:51;100588.47;;;25.03;43.57
78121;BME280;67585;44.802;10.332;2023-07-24T03:35:16;100591.59;;;24.85;43.53
78121;BME280;67585;44.802;10.332;2023-07-24T03:37:42;100598.16;;;24.97;43.51
78121;BME280;67585;44.802;10.332;2023-07-24T03:40:08;100591.34;;;24.90;43.73
78121;BME280;67585;44.802;10.332;2023-07-24T03:42:33;100577.63;;;24.94;43.82
78121;BME280;67585;44.802;10.332;2023-07-24T03:44:59;100594.50;;;25.24;43.38
78121;BME280;67585;44.802;10.332;2023-07-24T03:47:24;100589.44;;;25.26;43.36
78121;BME280;67585;44.802;10.332;2023-07-24T03:49:50;100577.16;;;25.24;42.76
78121;BME280;67585;44.802;10.332;2023-07-24T03:52:16;100560.19;;;25.06;42.16
78121;BME280;67585;44.802;10.332;2023-07-24T03:54:41;100581.63;;;24.81;42.55
78121;BME280;67585;44.802;10.332;2023-07-24T03:57:07;100594.63;;;24.96;42.58
78121;BME280;67585;44.802;10.332;2023-07-24T03:59:32;100580.72;;;24.92;41.90
78121;BME280;67585;44.802;10.332;2023-07-24T04:01:58;100580.78;;;25.12;42.15
78121;BME280;67585;44.802;10.332;2023-07-24T04:04:23;100555.25;;;24.95;42.13
78121;BME280;67585;44.802;10.332;2023-07-24T04:06:49;100577.97;;;25.08;42.05
78121;BME280;67585;44.802;10.332;2023-07-24T04:09:14;100594.97;;;25.10;41.95
78121;BME280;67585;44.802;10.332;2023-07-24T04:11:44;100610.63;;;25.22;42.36
78121;BME280;67585;44.802;10.332;2023-07-24T04:14:09;100627.75;;;25.15;42.44
78121;BME280;67585;44.802;10.332;2023-07-24T04:16:35;100605.56;;;24.77;42.78
78121;BME280;67585;44.802;10.332;2023-07-24T04:19:00;100629.47;;;24.72;43.60
78121;BME280;67585;44.802;10.332;2023-07-24T04:21:26;100660.28;;;24.78;43.49
78121;BME280;67585;44.802;10.332;2023-07-24T04:23:51;100691.31;;;24.59;44.26
78121;BME280;67585;44.802;10.332;2023-07-24T04:26:16;100699.00;;;24.53;44.70
78121;BME280;67585;44.802;10.332;2023-07-24T04:28:42;100703.53;;;24.46;43.96
78121;BME280;67585;44.802;10.332;2023-07-24T04:31:07;100736.44;;;24.55;44.16
78121;BME280;67585;44.802;10.332;2023-07-24T04:33:32;100759.69;;;24.17;44.99
78121;BME280;67585;44.802;10.332;2023-07-24T04:35:58;100784.81;;;24.27;45.19
78121;BME280;67585;44.802;10.332;2023-07-24T04:38:23;100772.84;;;24.36;45.32
78121;BME280;67585;44.802;10.332;2023-07-24T04:40:49;100746.41;;;24.06;45.71
78121;BME280;67585;44.802;10.332;2023-07-24T04:43:14;100714.16;;;24.19;45.58
78121;BME280;67585;44.802;10.332;2023-07-24T04:45:40;100716.25;;;24.38;45.38
78121;BME280;67585;44.802;10.332;2023-07-24T04:48:05;100783.09;;;24.23;46.58
78121;BME280;67585;44.802;10.332;2023-07-24T04:50:31;100804.53;;;24.17;47.02
78121;BME280;67585;44.802;10.332;2023-07-24T04:52:57;100838.16;;;24.23;46.96
78121;BME280;67585;44.802;10.332;2023-07-24T04:55:23;100882.88;;;24.20;47.01
78121;BME280;67585;44.802;10.332;2023-07-24T04:57:48;100804.53;;;23.56;48.34
78121;BME280;67585;44.802;10.332;2023-07-24T05:00:14;100741.19;;;23.77;48.44
78121;BME280;67585;44.802;10.332;2023-07-24T05:02:39;100791.66;;;24.34;49.50
78121;BME280;67585;44.802;10.332;2023-07-24T05:05:05;100762.31;;;24.25;49.71
78121;BME280;67585;44.802;10.332;2023-07-24T05:07:31;100589.44;;;23.75;50.40
78121;BME280;67585;44.802;10.332;2023-07-24T05:09:56;100464.38;;;23.72;52.07
78121;BME280;67585;44.802;10.332;2023-07-24T05:12:21;100396.34;;;23.41;54.14
78121;BME280;67585;44.802;10.332;2023-07-24T05:14:47;100336.34;;;23.15;52.79
78121;BME280;67585;44.802;10.332;2023-07-24T05:19:56;100315.69;;;22.93;53.38
78121;BME280;67585;44.802;10.332;2023-07-24T05:22:22;100337.31;;;23.07;52.55
78121;BME280;67585;44.802;10.332;2023-07-24T05:24:47;100395.66;;;23.16;53.83
78121;BME280;67585;44.802;10.332;2023-07-24T05:27:13;100424.03;;;23.48;53.49
78121;BME280;67585;44.802;10.332;2023-07-24T05:29:41;100500.91;;;23.44;53.64
78121;BME280;67585;44.802;10.332;2023-07-24T05:32:06;100585.19;;;23.00;54.89
78121;BME280;67585;44.802;10.332;2023-07-24T05:34:31;100635.78;;;23.36;54.70
78121;BME280;67585;44.802;10.332;2023-07-24T05:36:57;100619.78;;;23.66;54.01
78121;BME280;67585;44.802;10.332;2023-07-24T05:39:22;100597.09;;;23.81;53.09
78121;BME280;67585;44.802;10.332;2023-07-24T05:41:47;100614.19;;;24.03;52.10
78121;BME280;67585;44.802;10.332;2023-07-24T05:44:13;100591.63;;;23.97;52.88
78121;BME280;67585;44.802;10.332;2023-07-24T05:46:39;100579.91;;;24.28;52.64
78121;BME280;67585;44.802;10.332;2023-07-24T05:49:04;100571.50;;;24.37;52.11
78121;BME280;67585;44.802;10.332;2023-07-24T05:51:30;100576.28;;;24.40;52.24
78121;BME280;67585;44.802;10.332;2023-07-24T05:53:55;100600.88;;;24.33;52.91
78121;BME280;67585;44.802;10.332;2023-07-24T05:56:20;100606.19;;;24.54;51.72
78121;BME280;67585;44.802;10.332;2023-07-24T05:58:46;100579.97;;;24.32;50.39
78121;BME280;67585;44.802;10.332;2023-07-24T06:01:11;100598.34;;;24.56;50.67
78121;BME280;67585;44.802;10.332;2023-07-24T06:03:36;100625.72;;;24.65;50.88
78121;BME280;67585;44.802;10.332;2023-07-24T06:06:04;100643.56;;;24.55;50.38
78121;BME280;67585;44.802;10.332;2023-07-24T06:08:29;100685.47;;;24.77;51.41
78121;BME280;67585;44.802;10.332;2023-07-24T06:10:55;100723.63;;;24.90;50.60
78121;BME280;67585;44.802;10.332;2023-07-24T06:13:20;100754.34;;;24.77;50.23
78121;BME280;67585;44.802;10.332;2023-07-24T06:15:49;100698.53;;;24.80;50.41
78121;BME280;67585;44.802;10.332;2023-07-24T06:18:15;100663.25;;;25.01;50.54
78121;BME280;67585;44.802;10.332;2023-07-24T06:20:40;100621.63;;;25.06;50.40
78121;BME280;67585;44.802;10.332;2023-07-24T06:23:06;100525.44;;;25.01;50.04
78121;BME280;67585;44.802;10.332;2023-07-24T06:25:31;100497.72;;;24.78;50.29
78121;BME280;67585;44.802;10.332;2023-07-24T06:27:57;100508.34;;;24.60;50.83
78121;BME280;67585;44.802;10.332;2023-07-24T06:30:23;100450.59;;;24.16;51.26
78121;BME280;67585;44.802;10.332;2023-07-24T06:32:48;100456.25;;;24.39;50.76
78121;BME280;67585;44.802;10.332;2023-07-24T06:35:14;100370.78;;;24.16;51.13
78121;BME280;67585;44.802;10.332;2023-07-24T06:37:39;100338.25;;;24.22;50.09
78121;BME280;67585;44.802;10.332;2023-07-24T06:40:06;100339.00;;;24.03;50.67
78121;BME280;67585;44.802;10.332;2023-07-24T06:42:32;100360.88;;;24.31;50.61
78121;BME280;67585;44.802;10.332;2023-07-24T06:44:58;100373.25;;;24.21;50.54
78121;BME280;67585;44.802;10.332;2023-07-24T06:47:23;100423.88;;;24.33;50.07
78121;BME280;67585;44.802;10.332;2023-07-24T06:49:48;100467.66;;;24.38;50.18
78121;BME280;67585;44.802;10.332;2023-07-24T06:52:14;100503.16;;;24.43;50.11
78121;BME280;67585;44.802;10.332;2023-07-24T06:54:39;100483.81;;;24.55;50.42
78121;BME280;67585;44.802;10.332;2023-07-24T06:57:04;100498.47;;;24.75;49.70
78121;BME280;67585;44.802;10.332;2023-07-24T06:59:30;100479.06;;;24.87;50.18
78121;BME280;67585;44.802;10.332;2023-07-24T07:01:55;100474.34;;;25.23;50.28
78121;BME280;67585;44.802;10.332;2023-07-24T07:04:20;100473.56;;;25.42;51.80
78121;BME280;67585;44.802;10.332;2023-07-24T07:06:46;100475.66;;;25.49;52.86
78121;BME280;67585;44.802;10.332;2023-07-24T07:09:11;100478.63;;;25.40;54.03
78121;BME280;67585;44.802;10.332;2023-07-24T07:11:37;100458.41;;;25.32;54.04
78121;BME280;67585;44.802;10.332;2023-07-24T07:14:02;100467.41;;;25.49;55.31
78121;BME280;67585;44.802;10.332;2023-07-24T07:16:27;100484.66;;;25.46;57.20
78121;BME280;67585;44.802;10.332;2023-07-24T07:18:53;100486.47;;;25.38;57.09
78121;BME280;67585;44.802;10.332;2023-07-24T07:21:18;100512.22;;;25.26;57.50
78121;BME280;67585;44.802;10.332;2023-07-24T07:23:43;100522.56;;;25.49;57.48
78121;BME280;67585;44.802;10.332;2023-07-24T07:26:09;100515.41;;;25.28;57.75
78121;BME280;67585;44.802;10.332;2023-07-24T07:28:34;100514.50;;;25.40;57.68
78121;BME280;67585;44.802;10.332;2023-07-24T07:31:00;100508.47;;;25.34;57.78
78121;BME280;67585;44.802;10.332;2023-07-24T07:33:25;100506.16;;;25.56;57.41
78121;BME280;67585;44.802;10.332;2023-07-24T07:35:50;100481.59;;;26.13;56.89
78121;BME280;67585;44.802;10.332;2023-07-24T07:38:16;100499.22;;;26.51;58.46
78121;BME280;67585;44.802;10.332;2023-07-24T07:40:41;100501.72;;;26.86;57.99
78121;BME280;67585;44.802;10.332;2023-07-24T07:43:07;100502.25;;;26.69;59.09
78121;BME280;67585;44.802;10.332;2023-07-24T07:45:32;100496.78;;;26.99;59.06
78121;BME280;67585;44.802;10.332;2023-07-24T07:47:59;100511.34;;;26.96;59.96
78121;BME280;67585;44.802;10.332;2023-07-24T07:50:24;100524.06;;;26.74;61.05
78121;BME280;67585;44.802;10.332;2023-07-24T07:52:51;100507.50;;;27.04;59.84
78121;BME280;67585;44.802;10.332;2023-07-24T07:55:17;100507.72;;;26.92;61.23
78121;BME280;67585;44.802;10.332;2023-07-24T07:57:43;100498.50;;;27.37;59.13
78121;BME280;67585;44.802;10.332;2023-07-24T08:00:09;100503.25;;;27.70;59.09
78121;BME280;67585;44.802;10.332;2023-07-24T08:02:34;100506.88;;;28.16;57.14
78121;BME280;67585;44.802;10.332;2023-07-24T08:05:00;100487.94;;;28.21;57.55
78121;BME280;67585;44.802;10.332;2023-07-24T08:07:25;100505.22;;;28.48;57.26
78121;BME280;67585;44.802;10.332;2023-07-24T08:09:51;100510.13;;;28.69;56.33
78121;BME280;67585;44.802;10.332;2023-07-24T08:12:16;100483.63;;;28.75;55.28
78121;BME280;67585;44.802;10.332;2023-07-24T08:14:41;100484.00;;;28.70;56.64
78121;BME280;67585;44.802;10.332;2023-07-24T08:17:07;100499.66;;;29.04;54.88
78121;BME280;67585;44.802;10.332;2023-07-24T08:19:32;100476.22;;;28.94;54.15
78121;BME280;67585;44.802;10.332;2023-07-24T08:21:58;100510.09;;;29.28;54.04
78121;BME280;67585;44.802;10.332;2023-07-24T08:24:23;100532.88;;;28.96;56.16
78121;BME280;67585;44.802;10.332;2023-07-24T08:26:49;100547.84;;;28.85;56.24
78121;BME280;67585;44.802;10.332;2023-07-24T08:29:14;100563.44;;;29.04;55.85
78121;BME280;67585;44.802;10.332;2023-07-24T08:31:39;100571.44;;;28.61;56.59
78121;BME280;67585;44.802;10.332;2023-07-24T08:34:05;100605.25;;;28.40;57.69
78121;BME280;67585;44.802;10.332;2023-07-24T08:36:30;100587.88;;;28.87;56.94
78121;BME280;67585;44.802;10.332;2023-07-24T08:38:56;100579.56;;;28.43;57.80
78121;BME280;67585;44.802;10.332;2023-07-24T08:41:21;100560.25;;;27.79;58.67
78121;BME280;67585;44.802;10.332;2023-07-24T08:43:46;100536.88;;;28.06;57.13
78121;BME280;67585;44.802;10.332;2023-07-24T08:46:12;100526.16;;;28.01;58.07
78121;BME280;67585;44.802;10.332;2023-07-24T08:48:39;100510.25;;;27.95;58.70
78121;BME280;67585;44.802;10.332;2023-07-24T08:51:24;100488.59;;;28.07;58.65
78121;BME280;67585;44.802;10.332;2023-07-24T08:53:49;100497.03;;;28.22;58.71
78121;BME280;67585;44.802;10.332;2023-07-24T08:56:15;100540.28;;;28.33;59.35
78121;BME280;67585;44.802;10.332;2023-07-24T08:58:41;100549.72;;;27.88;60.92
78121;BME280;67585;44.802;10.332;2023-07-24T09:01:07;100579.41;;;27.87;60.80
78121;BME280;67585;44.802;10.332;2023-07-24T09:03:34;100653.03;;;27.92;60.83
78121;BME280;67585;44.802;10.332;2023-07-24T09:05:59;100692.34;;;27.48;62.93
78121;BME280;67585;44.802;10.332;2023-07-24T09:08:35;100693.38;;;27.40;63.66
78121;BME280;67585;44.802;10.332;2023-07-24T09:11:01;100690.16;;;27.34;63.96
78121;BME280;67585;44.802;10.332;2023-07-24T09:13:28;100718.97;;;27.33;65.27
78121;BME280;67585;44.802;10.332;2023-07-24T09:15:54;100718.59;;;27.12;66.38
78121;BME280;67585;44.802;10.332;2023-07-24T09:18:20;100701.88;;;27.27;67.17
78121;BME280;67585;44.802;10.332;2023-07-24T09:20:46;100659.50;;;27.20;67.39
78121;BME280;67585;44.802;10.332;2023-07-24T09:23:13;100651.78;;;27.10;68.00
78121;BME280;67585;44.802;10.332;2023-07-24T09:25:40;100649.66;;;26.99;68.07
78121;BME280;67585;44.802;10.332;2023-07-24T09:28:15;100661.28;;;26.85;67.01
78121;BME280;67585;44.802;10.332;2023-07-24T09:30:41;100678.28;;;26.88;67.63
78121;BME280;67585;44.802;10.332;2023-07-24T09:33:07;100653.41;;;26.64;66.66
78121;BME280;67585;44.802;10.332;2023-07-24T09:35:33;100524.44;;;26.49;65.40
78121;BME280;67585;44.802;10.332;2023-07-24T09:38:07;100353.72;;;26.62;66.65
78121;BME280;67585;44.802;10.332;2023-07-24T09:40:44;100388.28;;;26.75;68.46
78121;BME280;67585;44.802;10.332;2023-07-24T09:43:22;100501.28;;;27.11;67.46
78121;BME280;67585;44.802;10.332;2023-07-24T09:45:49;100459.44;;;27.12;67.96
78121;BME280;67585;44.802;10.332;2023-07-24T09:48:16;100428.84;;;26.98;66.99
78121;BME280;67585;44.802;10.332;2023-07-24T09:50:42;100485.03;;;27.05;67.57
78121;BME280;67585;44.802;10.332;2023-07-24T09:56:12;100543.28;;;27.46;66.50
78121;BME280;67585;44.802;10.332;2023-07-24T09:58:40;100508.63;;;28.34;63.33
78121;BME280;67585;44.802;10.332;2023-07-24T10:01:10;100522.25;;;29.06;61.36
78121;BME280;67585;44.802;10.332;2023-07-24T10:03:39;100529.38;;;29.03;60.44
78121;BME280;67585;44.802;10.332;2023-07-24T10:06:05;100536.97;;;28.58;62.23
78121;BME280;67585;44.802;10.332;2023-07-24T10:08:31;100529.06;;;28.19;62.77
78121;BME280;67585;44.802;10.332;2023-07-24T10:10:59;100505.13;;;28.38;62.17
78121;BME280;67585;44.802;10.332;2023-07-24T10:13:26;100529.03;;;28.57;62.07
78121;BME280;67585;44.802;10.332;2023-07-24T10:15:52;100523.81;;;28.48;61.67
78121;BME280;67585;44.802;10.332;2023-07-24T10:18:28;100532.84;;;27.66;63.86
78121;BME280;67585;44.802;10.332;2023-07-24T10:21:08;100521.59;;;27.82;63.39
78121;BME280;67585;44.802;10.332;2023-07-24T10:23:35;100487.06;;;27.73;63.62
78121;BME280;67585;44.802;10.332;2023-07-24T10:26:05;100422.44;;;27.99;62.93
78121;BME280;67585;44.802;10.332;2023-07-24T10:28:32;100376.81;;;28.33;62.28
78121;BME280;67585;44.802;10.332;2023-07-24T10:30:58;100334.88;;;28.39;62.89
78121;BME280;67585;44.802;10.332;2023-07-24T10:33:24;100315.44;;;29.19;59.93
78121;BME280;67585;44.802;10.332;2023-07-24T10:35:54;100327.00;;;29.68;58.48
78121;BME280;67585;44.802;10.332;2023-07-24T10:38:35;100337.72;;;29.91;57.79
78121;BME280;67585;44.802;10.332;2023-07-24T10:41:02;100326.84;;;28.89;60.34
78121;BME280;67585;44.802;10.332;2023-07-24T10:43:28;100320.22;;;29.51;57.91
78121;BME280;67585;44.802;10.332;2023-07-24T10:45:54;100324.16;;;29.14;58.88
78121;BME280;67585;44.802;10.332;2023-07-24T10:48:23;100344.25;;;28.93;59.72
78121;BME280;67585;44.802;10.332;2023-07-24T10:50:50;100341.00;;;28.62;59.50
78121;BME280;67585;44.802;10.332;2023-07-24T10:53:16;100356.47;;;28.74;60.29
78121;BME280;67585;44.802;10.332;2023-07-24T10:55:43;100378.47;;;29.26;58.25
78121;BME280;67585;44.802;10.332;2023-07-24T10:58:09;100392.88;;;28.69;59.48
78121;BME280;67585;44.802;10.332;2023-07-24T11:00:35;100380.44;;;28.45;60.58
78121;BME280;67585;44.802;10.332;2023-07-24T11:03:01;100403.69;;;28.26;62.24
78121;BME280;67585;44.802;10.332;2023-07-24T11:05:26;100399.81;;;28.41;61.15
78121;BME280;67585;44.802;10.332;2023-07-24T11:07:52;100408.59;;;28.47;60.30
78121;BME280;67585;44.802;10.332;2023-07-24T11:10:19;100423.97;;;28.44;60.88
78121;BME280;67585;44.802;10.332;2023-07-24T11:12:44;100441.53;;;28.55;61.01
78121;BME280;67585;44.802;10.332;2023-07-24T11:15:11;100456.03;;;28.42;61.35
78121;BME280;67585;44.802;10.332;2023-07-24T11:17:38;100459.16;;;28.37;61.21
78121;BME280;67585;44.802;10.332;2023-07-24T11:20:12;100475.38;;;28.34;60.92
78121;BME280;67585;44.802;10.332;2023-07-24T11:22:39;100491.53;;;28.73;59.42
78121;BME280;67585;44.802;10.332;2023-07-24T11:25:05;100483.25;;;28.77;59.80
78121;BME280;67585;44.802;10.332;2023-07-24T11:27:31;100497.72;;;29.15;58.15
78121;BME280;67585;44.802;10.332;2023-07-24T11:29:56;100453.75;;;29.17;57.20
78121;BME280;67585;44.802;10.332;2023-07-24T11:32:22;100477.22;;;29.34;57.05
78121;BME280;67585;44.802;10.332;2023-07-24T11:34:48;100458.09;;;29.14;56.98
78121;BME280;67585;44.802;10.332;2023-07-24T11:37:15;100447.47;;;29.31;56.97
78121;BME280;67585;44.802;10.332;2023-07-24T11:39:41;100458.56;;;29.34;57.27
78121;BME280;67585;44.802;10.332;2023-07-24T11:42:07;100445.50;;;29.38;56.49
78121;BME280;67585;44.802;10.332;2023-07-24T11:44:32;100432.94;;;29.70;56.00
78121;BME280;67585;44.802;10.332;2023-07-24T11:47:05;100393.22;;;29.62;55.46
78121;BME280;67585;44.802;10.332;2023-07-24T11:49:31;100391.28;;;29.70;54.84
78121;BME280;67585;44.802;10.332;2023-07-24T11:52:04;100379.34;;;30.12;54.94
78121;BME280;67585;44.802;10.332;2023-07-24T11:54:33;100371.44;;;30.39;53.41
78121;BME280;67585;44.802;10.332;2023-07-24T11:56:58;100382.53;;;30.43;52.65
78121;BME280;67585;44.802;10.332;2023-07-24T11:59:24;100363.06;;;30.21;52.68
78121;BME280;67585;44.802;10.332;2023-07-24T12:01:50;100302.31;;;30.45;50.90
78121;BME280;67585;44.802;10.332;2023-07-24T12:04:15;100282.28;;;30.79;49.97
78121;BME280;67585;44.802;10.332;2023-07-24T12:06:41;100244.25;;;30.58;51.82
78121;BME280;67585;44.802;10.332;2023-07-24T12:09:07;100237.00;;;30.75;51.31
78121;BME280;67585;44.802;10.332;2023-07-24T12:11:34;100237.94;;;30.54;52.28
78121;BME280;67585;44.802;10.332;2023-07-24T12:14:04;100250.50;;;30.83;50.69
78121;BME280;67585;44.802;10.332;2023-07-24T12:16:29;100252.97;;;30.63;50.51
78121;BME280;67585;44.802;10.332;2023-07-24T12:18:55;100257.69;;;30.70;50.19
78121;BME280;67585;44.802;10.332;2023-07-24T12:21:21;100249.78;;;31.32;49.89
78121;BME280;67585;44.802;10.332;2023-07-24T12:23:46;100236.41;;;31.08;49.76
78121;BME280;67585;44.802;10.332;2023-07-24T12:26:11;100226.13;;;31.05;49.44
78121;BME280;67585;44.802;10.332;2023-07-24T12:28:37;100241.53;;;31.14;50.63
78121;BME280;67585;44.802;10.332;2023-07-24T12:31:02;100241.53;;;31.14;49.81
78121;BME280;67585;44.802;10.332;2023-07-24T12:33:28;100236.06;;;31.03;48.53
78121;BME280;67585;44.802;10.332;2023-07-24T12:35:53;100235.47;;;31.26;48.78
78121;BME280;67585;44.802;10.332;2023-07-24T12:38:19;100264.44;;;30.76;49.97
78121;BME280;67585;44.802;10.332;2023-07-24T12:40:44;100272.72;;;30.87;48.17
78121;BME280;67585;44.802;10.332;2023-07-24T12:43:10;100277.38;;;31.08;48.83
78121;BME280;67585;44.802;10.332;2023-07-24T12:45:35;100286.56;;;31.01;48.41